createdAt,value
2022-09-02T00:04:29.159Z,3.45
2022-09-02T00:09:30.915Z,6.57
2022-09-02T00:14:36.037Z,5.80
2022-09-02T00:19:38.527Z,7.22
2022-09-02T00:24:40.435Z,4.65
2022-09-02T00:29:42.006Z,5.18
2022-09-02T00:34:43.665Z,8.68
2022-09-02T00:39:45.250Z,5.55
2022-09-02T00:44:47.439Z,3.95
2022-09-02T00:49:53.986Z,4.18
2022-09-02T00:55:07.780Z,4.70
2022-09-02T01:00:24.262Z,4.38
2022-09-02T01:05:29.914Z,3.70
2022-09-02T01:10:34.505Z,4.18
2022-09-02T01:15:44.139Z,5.15
2022-09-02T01:20:46.326Z,5.35
2022-09-02T01:25:48.595Z,6.68
2022-09-02T01:30:53.748Z,6.63
2022-09-02T01:35:56.134Z,6.97
2022-09-02T01:40:58.213Z,4.50
2022-09-02T01:46:00.327Z,4.47
2022-09-02T01:51:03.703Z,5.25
2022-09-02T01:56:05.509Z,5.93
2022-09-02T02:01:08.179Z,5.22
2022-09-02T02:06:16.593Z,5.97
2022-09-02T02:11:24.152Z,5.15
2022-09-02T02:16:25.988Z,5.22
2022-09-02T02:21:28.126Z,4.13
2022-09-02T02:26:30.974Z,6.78
2022-09-02T02:31:33.153Z,6.30
2022-09-02T02:36:35.527Z,6.63
2022-09-02T02:41:37.720Z,7.18
2022-09-02T02:46:39.392Z,5.10
2022-09-02T02:51:41.072Z,7.22
2022-09-02T02:56:42.705Z,5.25
2022-09-02T03:01:44.348Z,5.40
2022-09-02T03:06:46.072Z,5.22
2022-09-02T03:11:48.278Z,5.53
2022-09-02T03:16:49.874Z,6.30
2022-09-02T03:21:52.125Z,4.72
2022-09-02T03:26:53.814Z,6.22
2022-09-02T03:31:55.592Z,4.45
2022-09-02T03:36:59.042Z,4.15
2022-09-02T03:42:01.061Z,7.82
2022-09-02T03:47:02.981Z,4.97
2022-09-02T03:52:04.628Z,4.32
2022-09-02T03:57:06.458Z,3.92
2022-09-02T04:02:08.255Z,7.05
2022-09-02T04:07:10.252Z,4.68
2022-09-02T04:12:11.914Z,4.30
2022-09-02T04:17:13.527Z,6.22
2022-09-02T04:22:15.165Z,8.00
2022-09-02T04:27:16.749Z,7.15
2022-09-02T04:32:18.395Z,5.63
2022-09-02T04:37:20.177Z,5.93
2022-09-02T04:42:21.833Z,5.28
2022-09-02T04:47:23.949Z,5.68
2022-09-02T04:52:25.800Z,3.50
2022-09-02T04:57:27.473Z,4.97
2022-09-02T05:02:29.122Z,3.75
2022-09-02T05:07:30.982Z,4.13
2022-09-02T05:12:35.376Z,4.05
2022-09-02T05:17:37.010Z,4.18
2022-09-02T05:22:38.847Z,7.97
2022-09-02T05:27:40.484Z,9.48
2022-09-02T05:32:42.416Z,6.45
2022-09-02T05:37:44.047Z,6.10
2022-09-02T05:42:45.637Z,7.15
2022-09-02T05:47:51.253Z,6.88
2022-09-02T05:52:52.891Z,5.60
2022-09-02T05:57:54.455Z,5.15
2022-09-02T06:02:56.925Z,6.72
2022-09-02T06:07:58.562Z,4.93
2022-09-02T06:13:00.204Z,6.63
2022-09-02T06:18:01.853Z,5.18
2022-09-02T06:23:04.328Z,5.22
2022-09-02T06:28:07.518Z,2.92
2022-09-02T06:33:10.141Z,3.45
2022-09-02T06:38:14.328Z,3.22
2022-09-02T06:43:16.001Z,3.20
2022-09-02T06:48:17.666Z,4.47
2022-09-02T06:53:19.757Z,3.20
2022-09-02T06:58:21.365Z,2.63
2022-09-02T07:03:41.309Z,6.63
2022-09-02T07:08:44.465Z,2.10
2022-09-02T07:13:46.156Z,1.98
2022-09-02T07:18:47.722Z,2.95
2022-09-02T07:23:49.413Z,2.83
2022-09-02T07:28:51.258Z,2.35
2022-09-02T07:33:53.358Z,3.28
2022-09-02T07:38:55.107Z,4.28
2022-09-02T07:43:59.741Z,1.75
2022-09-02T07:49:05.889Z,3.17
2022-09-02T07:54:13.147Z,2.80
2022-09-02T07:59:14.758Z,1.65
2022-09-02T08:04:18.762Z,1.65
2022-09-02T08:09:21.431Z,4.63
2022-09-02T08:14:28.773Z,3.03
2022-09-02T08:19:31.070Z,1.07
2022-09-02T08:24:33.180Z,2.22
2022-09-02T08:29:35.292Z,1.10
2022-09-02T08:34:36.889Z,1.17
2022-09-02T08:39:38.508Z,0.98
2022-09-02T08:44:41.241Z,1.48
2022-09-02T08:49:48.488Z,2.33
2022-09-02T08:54:57.735Z,1.95
2022-09-02T09:00:02.058Z,1.17
2022-09-02T09:05:40.841Z,1.80
2022-09-02T09:11:03.076Z,1.10
2022-09-02T09:16:10.833Z,1.30
2022-09-02T09:21:14.670Z,3.77
2022-09-02T09:26:26.780Z,1.58
2022-09-02T09:31:31.221Z,2.58
2022-09-02T09:36:41.715Z,4.35
2022-09-02T09:41:44.370Z,3.05
2022-09-02T09:46:46.014Z,1.27
2022-09-02T09:51:55.669Z,1.65
2022-09-02T09:57:15.971Z,1.08
2022-09-02T10:02:22.310Z,0.60
2022-09-02T10:07:45.340Z,2.92
2022-09-02T10:12:49.632Z,1.75
2022-09-02T10:18:14.759Z,1.60
2022-09-02T10:23:21.571Z,1.35
2022-09-02T10:28:52.651Z,2.40
2022-09-02T10:34:03.564Z,1.80
2022-09-02T10:39:30.527Z,1.58
2022-09-02T10:45:04.129Z,0.95
2022-09-02T10:50:14.929Z,0.70
2022-09-02T10:55:23.220Z,0.68
2022-09-02T11:00:28.337Z,1.35
2022-09-02T11:05:48.915Z,1.75
2022-09-02T11:11:02.655Z,2.47
2022-09-02T11:17:02.791Z,1.70
2022-09-02T11:22:11.043Z,2.67
2022-09-02T11:27:45.536Z,2.17
2022-09-02T11:33:19.163Z,4.82
2022-09-02T11:38:23.640Z,1.60
2022-09-02T11:43:42.393Z,1.38
2022-09-02T11:49:10.568Z,1.70
2022-09-02T11:54:16.366Z,1.25
2022-09-02T11:59:53.310Z,2.08
2022-09-02T12:05:41.235Z,1.30
2022-09-02T12:10:43.651Z,2.20
2022-09-02T12:15:45.599Z,1.40
2022-09-02T12:20:51.093Z,1.88
2022-09-02T12:26:01.557Z,1.23
2022-09-02T12:31:07.732Z,2.13
2022-09-02T12:36:29.907Z,1.85
2022-09-02T12:41:34.246Z,1.48
2022-09-02T12:46:45.267Z,1.30
2022-09-02T12:52:11.987Z,1.75
2022-09-02T12:57:16.351Z,0.60
2022-09-02T13:02:53.472Z,1.00
2022-09-02T13:08:23.945Z,0.80
2022-09-02T13:13:46.896Z,2.85
2022-09-02T13:19:20.315Z,3.60
2022-09-02T13:25:00.592Z,2.55
2022-09-02T13:30:18.125Z,5.78
2022-09-02T13:35:25.998Z,1.98
2022-09-02T13:40:28.966Z,1.30
2022-09-02T13:45:35.189Z,1.15
2022-09-02T13:50:42.379Z,2.40
2022-09-02T13:55:50.884Z,1.50
2022-09-02T14:05:57.480Z,4.35
2022-09-02T14:11:00.703Z,5.25
2022-09-02T14:16:34.534Z,1.23
2022-09-02T14:21:38.068Z,1.27
2022-09-02T14:26:44.137Z,1.08
2022-09-02T14:31:46.628Z,3.58
2022-09-02T14:36:48.192Z,2.05
2022-09-02T14:41:53.287Z,1.08
2022-09-02T14:46:57.664Z,1.17
2022-09-02T14:52:02.063Z,2.13
2022-09-02T14:57:05.120Z,2.75
2022-09-02T15:02:06.804Z,1.77
2022-09-02T15:07:08.406Z,1.92
2022-09-02T15:12:12.057Z,1.80
2022-09-02T15:17:15.896Z,4.90
2022-09-02T15:22:18.321Z,1.50
2022-09-02T15:27:21.592Z,3.03
2022-09-02T15:32:26.702Z,2.35
2022-09-02T15:37:28.251Z,1.88
2022-09-02T15:42:29.871Z,3.42
2022-09-02T15:47:35.156Z,4.80
2022-09-02T15:52:37.163Z,1.67
2022-09-02T15:57:38.764Z,4.57
2022-09-02T16:02:40.435Z,2.42
2022-09-02T16:07:42.094Z,4.63
2022-09-02T16:12:43.660Z,2.65
2022-09-02T16:17:45.229Z,3.75
2022-09-02T16:22:47.110Z,2.40
2022-09-02T16:27:55.871Z,3.90
2022-09-02T16:32:57.460Z,1.42
2022-09-02T16:37:59.035Z,3.25
2022-09-02T16:43:00.644Z,1.65
2022-09-02T16:48:02.370Z,2.50
2022-09-02T16:53:03.955Z,3.17
2022-09-02T16:58:05.522Z,2.03
2022-09-02T17:03:11.842Z,2.60
2022-09-02T17:08:13.428Z,1.77
2022-09-02T17:13:15.143Z,1.33
2022-09-02T17:18:16.735Z,1.25
2022-09-02T17:23:18.408Z,4.35
2022-09-02T17:28:20.010Z,2.40
2022-09-02T17:33:21.731Z,3.10
2022-09-02T17:38:27.183Z,3.55
2022-09-02T17:43:29.005Z,4.82
2022-09-02T17:48:41.688Z,5.22
2022-09-02T17:53:46.889Z,3.63
2022-09-02T17:59:27.189Z,3.90
2022-09-02T18:04:59.385Z,5.78
2022-09-02T18:10:00.969Z,3.90
2022-09-02T18:15:03.063Z,3.28
2022-09-02T18:20:38.573Z,3.60
2022-09-02T18:26:07.561Z,8.23
2022-09-02T18:31:47.014Z,5.45
2022-09-02T18:37:10.170Z,6.93
2022-09-02T18:42:30.489Z,5.05
2022-09-02T18:47:54.206Z,5.38
2022-09-02T18:52:59.071Z,5.60
2022-09-02T18:58:27.024Z,6.97
2022-09-02T19:03:34.918Z,6.53
2022-09-02T19:08:38.337Z,4.50
2022-09-02T19:13:49.811Z,6.40
2022-09-02T19:18:51.851Z,5.60
2022-09-02T19:23:53.712Z,6.88
2022-09-02T19:28:56.177Z,8.77
2022-09-02T19:34:02.003Z,8.55
2022-09-02T19:39:03.759Z,6.72
2022-09-02T19:44:05.309Z,10.27
2022-09-02T19:49:06.859Z,8.40
2022-09-02T19:54:08.677Z,7.45
2022-09-02T19:59:10.967Z,5.95
2022-09-02T20:04:12.750Z,8.15
2022-09-02T20:09:14.381Z,5.82
2022-09-02T20:14:18.709Z,8.38
2022-09-02T20:19:21.508Z,6.57
2022-09-02T20:24:31.604Z,4.70
2022-09-02T20:30:08.997Z,4.80
2022-09-02T20:35:25.636Z,5.32
2022-09-02T20:40:27.256Z,5.53
2022-09-02T20:45:54.561Z,6.35
2022-09-02T20:51:12.822Z,2.67
2022-09-02T20:56:33.175Z,3.38
2022-09-02T21:06:42.830Z,2.90
2022-09-02T21:12:18.517Z,6.13
2022-09-02T21:17:28.904Z,3.75
2022-09-02T21:22:40.154Z,1.98
2022-09-02T21:27:55.160Z,6.30
2022-09-02T21:33:01.995Z,4.28
2022-09-02T21:38:09.253Z,2.65
2022-09-02T21:43:26.414Z,2.63
2022-09-02T21:48:34.427Z,3.17
2022-09-02T21:54:17.586Z,3.97
2022-09-02T21:59:30.726Z,6.40
2022-09-02T22:04:54.262Z,2.60
2022-09-02T22:10:29.729Z,3.50
2022-09-02T22:15:58.063Z,4.28
2022-09-02T22:21:08.625Z,4.15
2022-09-02T22:26:36.374Z,4.43
2022-09-02T22:31:42.745Z,3.88
2022-09-02T22:36:52.235Z,4.03
2022-09-02T22:42:04.290Z,2.97
2022-09-02T22:47:32.173Z,4.53
2022-09-02T22:52:50.567Z,5.70
2022-09-02T22:57:58.206Z,3.13
2022-09-02T23:03:05.807Z,2.65
2022-09-02T23:08:08.350Z,4.43
2022-09-02T23:13:23.170Z,4.03
2022-09-02T23:18:33.709Z,5.32
2022-09-02T23:23:38.888Z,4.40
2022-09-02T23:28:46.169Z,2.95
2022-09-02T23:34:07.076Z,2.97
2022-09-02T23:39:39.685Z,2.25
2022-09-02T23:44:41.872Z,4.00
2022-09-02T23:50:06.653Z,4.18
2022-09-02T23:55:16.886Z,2.90
